Time,TemperatureF,DewpointF,PressureIn,WindDirection,WindDirectionDegrees,WindSpeedMPH,WindSpeedGustMPH,Humidity,HourlyPrecipIn,Conditions,Clouds,dailyrainin,SoftwareType,DateUTC
2013-05-27 00:01:00,74.4,68.4,29.84,SE,145,4.0,7.8,81,0.00,,,-99.99,Meteorologica,2013-05-27 05:01:00,
2013-05-27 00:06:00,74.2,68.3,29.84,ESE,107,4.3,8.5,81,0.00,,,-99.99,Meteorologica,2013-05-27 05:06:00,
2013-05-27 00:11:00,74.4,68.4,29.85,WSW,242,4.2,9.8,81,0.00,,,-99.99,Meteorologica,2013-05-27 05:11:00,
2013-05-27 00:16:00,74.4,68.4,29.85,SSW,209,5.0,11.3,81,0.00,,,-99.99,Meteorologica,2013-05-27 05:16:00,
2013-05-27 00:21:00,74.6,68.6,29.85,SE,146,5.7,10.4,81,0.00,,,-99.99,Meteorologica,2013-05-27 05:21:00,
2013-05-27 00:26:00,74.7,68.6,29.85,East,96,5.9,9.9,81,0.00,,,-99.99,Meteorologica,2013-05-27 05:26:00,
2013-05-27 00:31:00,74.7,68.5,29.85,ENE,66,4.8,8.2,80,0.00,,,-99.99,Meteorologica,2013-05-27 05:31:00,
2013-05-27 00:36:00,74.7,68.5,29.84,SW,222,4.3,12.2,80,0.00,,,-99.99,Meteorologica,2013-05-27 05:36:00,
2013-05-27 00:41:00,74.8,68.7,29.84,SE,145,5.3,10.8,81,0.00,,,-99.99,Meteorologica,2013-05-27 05:41:00,
2013-05-27 00:46:00,74.9,68.6,29.85,South,181,6.2,13.4,81,0.00,,,-99.99,Meteorologica,2013-05-27 05:46:00,
2013-05-27 00:51:00,74.8,68.7,29.85,ESE,113,2.5,10.7,81,0.00,,,-99.99,Meteorologica,2013-05-27 05:51:00,
2013-05-27 00:56:00,74.9,68.8,29.85,ESE,122,2.9,12.2,81,0.00,,,-99.99,Meteorologica,2013-05-27 05:56:00,
2013-05-27 01:01:00,74.8,68.7,29.85,WSW,238,5.0,9.2,81,0.00,,,-99.99,Meteorologica,2013-05-27 06:01:00,
2013-05-27 01:06:00,75.0,68.8,29.85,South,174,8.6,16.7,80,0.00,,,-99.99,Meteorologica,2013-05-27 06:06:00,
2013-05-27 01:11:00,74.8,68.6,29.85,SE,142,6.4,11.2,80,0.00,,,-99.99,Meteorologica,2013-05-27 06:11:00,
2013-05-27 01:16:00,74.9,68.8,29.85,SE,133,4.3,13.6,81,0.00,,,-99.99,Meteorologica,2013-05-27 06:16:00,
2013-05-27 01:21:00,74.9,68.7,29.85,ESE,103,4.1,11.8,81,0.00,,,-99.99,Meteorologica,2013-05-27 06:21:00,
2013-05-27 01:26:00,74.6,68.6,29.85,SE,128,5.3,11.8,81,0.00,,,-99.99,Meteorologica,2013-05-27 06:26:00,
2013-05-27 01:31:00,74.6,68.6,29.85,South,187,6.3,12.0,81,0.00,,,-99.99,Meteorologica,2013-05-27 06:31:00,
2013-05-27 01:36:00,74.6,68.5,29.86,SE,132,5.3,15.7,81,0.00,,,-99.99,Meteorologica,2013-05-27 06:36:00,
2013-05-27 01:41:00,74.6,68.5,29.86,SSW,194,5.5,13.8,81,0.00,,,-99.99,Meteorologica,2013-05-27 06:41:00,
2013-05-27 01:46:00,74.6,68.5,29.86,South,190,5.1,14.1,81,0.00,,,-99.99,Meteorologica,2013-05-27 06:46:00,
2013-05-27 01:51:00,74.6,68.4,29.85,SE,127,5.9,12.1,80,0.00,,,-99.99,Meteorologica,2013-05-27 06:51:00,
2013-05-27 01:56:00,74.6,68.3,29.85,South,171,6.8,17.4,80,0.00,,,-99.99,Meteorologica,2013-05-27 06:56:00,
2013-05-27 02:01:00,74.2,67.9,29.86,SSW,197,6.4,11.1,80,0.00,,,-99.99,Meteorologica,2013-05-27 07:01:00,
2013-05-27 02:06:00,74.2,67.9,29.85,South,174,7.3,12.0,80,0.00,,,-99.99,Meteorologica,2013-05-27 07:06:00,
2013-05-27 02:11:00,74.3,68.0,29.85,SE,132,5.0,12.1,80,0.00,,,-99.99,Meteorologica,2013-05-27 07:11:00,
2013-05-27 02:16:00,74.3,68.0,29.84,East,80,3.9,10.1,80,0.00,,,-99.99,Meteorologica,2013-05-27 07:16:00,
2013-05-27 02:21:00,74.0,67.7,29.84,East,83,6.4,12.2,80,0.00,,,-99.99,Meteorologica,2013-05-27 07:21:00,
2013-05-27 02:26:00,74.1,67.8,29.84,SSE,166,3.9,13.9,80,0.00,,,-99.99,Meteorologica,2013-05-27 07:26:00,
2013-05-27 02:31:00,73.9,67.5,29.84,SW,215,8.2,12.4,80,0.00,,,-99.99,Meteorologica,2013-05-27 07:31:00,
2013-05-27 02:36:00,73.9,67.6,29.84,ESE,111,5.0,12.6,80,0.00,,,-99.99,Meteorologica,2013-05-27 07:36:00,
2013-05-27 02:41:00,73.8,67.5,29.84,South,188,3.5,9.9,80,0.00,,,-99.99,Meteorologica,2013-05-27 07:41:00,
2013-05-27 02:46:00,73.7,67.5,29.83,South,182,6.2,10.2,80,0.00,,,-99.99,Meteorologica,2013-05-27 07:46:00,
2013-05-27 02:51:00,73.5,67.3,29.83,SSE,166,5.2,10.7,80,0.00,,,-99.99,Meteorologica,2013-05-27 07:51:00,
2013-05-27 02:56:00,73.6,67.4,29.83,SSW,200,6.5,13.8,80,0.00,,,-99.99,Meteorologica,2013-05-27 07:56:00,
2013-05-27 03:01:00,73.5,67.3,29.83,SW,216,5.6,13.3,80,0.00,,,-99.99,Meteorologica,2013-05-27 08:01:00,
2013-05-27 03:06:00,73.4,67.2,29.83,South,177,2.3,15.8,80,0.00,,,-99.99,Meteorologica,2013-05-27 08:06:00,
2013-05-27 03:11:00,73.3,67.1,29.82,SSE,159,4.4,13.8,80,0.00,,,-99.99,Meteorologica,2013-05-27 08:11:00,
2013-05-27 03:16:00,73.2,67.0,29.82,South,177,6.9,14.4,80,0.00,,,-99.99,Meteorologica,2013-05-27 08:16:00,
2013-05-27 03:21:00,73.2,67.0,29.82,WSW,248,6.1,13.1,80,0.00,,,-99.99,Meteorologica,2013-05-27 08:21:00,
2013-05-27 03:26:00,73.2,67.0,29.82,SSE,149,5.8,11.2,80,0.00,,,-99.99,Meteorologica,2013-05-27 08:26:00,
2013-05-27 03:31:00,73.3,67.1,29.82,WSW,238,4.9,14.1,80,0.00,,,-99.99,Meteorologica,2013-05-27 08:31:00,
2013-05-27 03:36:00,73.2,67.0,29.81,South,180,5.5,16.4,80,0.00,,,-99.99,Meteorologica,2013-05-27 08:36:00,
2013-05-27 03:41:00,73.3,67.1,29.81,SW,221,4.1,13.9,80,0.00,,,-99.99,Meteorologica,2013-05-27 08:41:00,
2013-05-27 03:46:00,73.3,67.1,29.81,South,189,4.2,12.2,80,0.00,,,-99.99,Meteorologica,2013-05-27 08:46:00,
2013-05-27 03:51:00,73.2,67.0,29.82,South,190,8.1,11.9,80,0.00,,,-99.99,Meteorologica,2013-05-27 08:51:00,
2013-05-27 03:56:00,73.4,67.2,29.81,SSW,201,5.1,12.0,80,0.00,,,-99.99,Meteorologica,2013-05-27 08:56:00,
2013-05-27 04:01:00,73.3,67.2,29.80,SSE,162,3.8,11.2,80,0.00,,,-99.99,Meteorologica,2013-05-27 09:01:00,
2013-05-27 04:06:00,73.2,67.1,29.80,SE,145,6.1,12.5,80,0.00,,,-99.99,Meteorologica,2013-05-27 09:06:00,
2013-05-27 04:11:00,73.1,67.0,29.80,SSE,166,4.9,11.8,81,0.00,,,-99.99,Meteorologica,2013-05-27 09:11:00,
2013-05-27 04:16:00,73.1,67.1,29.80,WSW,252,5.8,11.7,81,0.00,,,-99.99,Meteorologica,2013-05-27 09:16:00,
2013-05-27 04:21:00,72.8,66.9,29.79,SW,221,7.6,13.1,81,0.00,,,-99.99,Meteorologica,2013-05-27 09:21:00,
2013-05-27 04:26:00,72.9,67.1,29.78,South,175,3.1,12.6,81,0.00,,,-99.99,Meteorologica,2013-05-27 09:26:00,
2013-05-27 04:31:00,72.8,67.1,29.79,SSE,165,6.3,9.9,82,0.00,,,-99.99,Meteorologica,2013-05-27 09:31:00,
2013-05-27 04:36:00,72.8,67.2,29.79,SSE,155,3.9,10.5,82,0.00,,,-99.99,Meteorologica,2013-05-27 09:36:00,
2013-05-27 04:41:00,72.7,67.1,29.79,SSW,205,4.1,12.6,82,0.00,,,-99.99,Meteorologica,2013-05-27 09:41:00,
2013-05-27 04:46:00,72.8,67.2,29.80,SW,214,1.4,8.7,82,0.00,,,-99.99,Meteorologica,2013-05-27 09:46:00,
2013-05-27 04:51:00,72.8,67.2,29.82,South,184,0.0,8.9,82,0.00,,,-99.99,Meteorologica,2013-05-27 09:51:00,
2013-05-27 04:56:00,72.9,67.4,29.86,North,8,2.3,5.4,82,0.00,,,-99.99,Meteorologica,2013-05-27 09:56:00,
2013-05-27 05:01:00,71.8,62.0,29.87,ENE,68,9.9,20.5,70,0.00,,,-99.99,Meteorologica,2013-05-27 10:01:00,
2013-05-27 05:06:00,70.1,61.2,29.89,North,355,6.7,18.8,73,0.00,,,-99.99,Meteorologica,2013-05-27 10:06:00,
2013-05-27 05:11:00,68.7,60.8,29.90,NE,53,7.0,12.6,75,0.00,,,-99.99,Meteorologica,2013-05-27 10:11:00,
2013-05-27 05:16:00,67.8,61.2,29.88,NE,52,7.4,13.4,79,0.00,,,-99.99,Meteorologica,2013-05-27 10:16:00,
2013-05-27 05:21:00,66.3,61.1,29.86,NE,49,10.3,20.8,83,0.00,,,-99.99,Meteorologica,2013-05-27 10:21:00,
2013-05-27 05:26:00,65.2,61.1,29.87,North,2,5.6,13.1,86,0.00,,,-99.99,Meteorologica,2013-05-27 10:26:00,
2013-05-27 05:31:00,64.3,61.2,29.86,ENE,63,6.3,19.7,89,0.00,,,-99.99,Meteorologica,2013-05-27 10:31:00,
2013-05-27 05:36:00,63.6,60.7,29.88,NE,36,4.5,12.0,90,0.00,,,-99.99,Meteorologica,2013-05-27 10:36:00,
2013-05-27 05:42:00,63.5,60.8,29.88,ENE,59,3.7,7.5,90,0.00,,,-99.99,Meteorologica,2013-05-27 10:42:00,
2013-05-27 05:47:00,62.9,60.4,29.88,East,98,1.3,3.3,91,0.00,,,-99.99,Meteorologica,2013-05-27 10:47:00,
2013-05-27 05:52:00,62.7,60.4,29.87,SE,130,4.5,8.3,92,0.00,,,-99.99,Meteorologica,2013-05-27 10:52:00,
2013-05-27 05:57:00,62.2,60.0,29.86,ESE,104,5.2,7.8,92,0.00,,,-99.99,Meteorologica,2013-05-27 10:57:00,
2013-05-27 06:02:00,62.2,60.0,29.86,ENE,67,4.6,7.5,92,0.00,,,-99.99,Meteorologica,2013-05-27 11:02:00,
2013-05-27 06:07:00,62.1,59.9,29.86,ESE,104,3.7,5.7,92,0.00,,,-99.99,Meteorologica,2013-05-27 11:07:00,
2013-05-27 06:12:00,62.1,60.0,29.87,ESE,106,4.8,7.1,92,0.00,,,-99.99,Meteorologica,2013-05-27 11:12:00,
2013-05-27 06:17:00,62.1,60.0,29.87,East,101,2.6,6.1,92,0.00,,,-99.99,Meteorologica,2013-05-27 11:17:00,
2013-05-27 06:22:00,62.0,59.9,29.87,NE,45,2.3,6.3,93,0.00,,,-99.99,Meteorologica,2013-05-27 11:22:00,
2013-05-27 06:27:00,62.2,60.2,29.87,ENE,69,4.1,7.4,93,0.00,,,-99.99,Meteorologica,2013-05-27 11:27:00,
2013-05-27 06:32:00,62.0,60.0,29.86,East,99,1.8,5.1,93,0.00,,,-99.99,Meteorologica,2013-05-27 11:32:00,
2013-05-27 06:37:00,62.0,60.0,29.87,NE,38,0.5,3.4,93,0.00,,,-99.99,Meteorologica,2013-05-27 11:37:00,
2013-05-27 06:42:00,62.0,60.0,29.87,North,9,0.0,0.0,93,0.00,,,-99.99,Meteorologica,2013-05-27 11:42:00,
2013-05-27 06:47:00,62.0,60.0,29.87,North,354,0.1,0.0,93,0.00,,,-99.99,Meteorologica,2013-05-27 11:47:00,
2013-05-27 06:52:00,61.9,59.9,29.86,ESE,105,3.5,7.3,93,0.00,,,-99.99,Meteorologica,2013-05-27 11:52:00,
2013-05-27 06:57:00,61.9,59.9,29.85,East,95,3.6,6.8,93,0.00,,,-99.99,Meteorologica,2013-05-27 11:57:00,
2013-05-27 07:02:00,61.9,59.9,29.85,ENE,57,2.9,6.0,93,0.00,,,-99.99,Meteorologica,2013-05-27 12:02:00,
2013-05-27 07:07:00,61.9,59.9,29.85,ESE,103,3.3,7.4,93,0.00,,,-99.99,Meteorologica,2013-05-27 12:07:00,
2013-05-27 07:12:00,62.1,60.1,29.85,ESE,108,2.4,4.8,93,0.00,,,-99.99,Meteorologica,2013-05-27 12:12:00,
2013-05-27 07:17:00,62.2,60.2,29.85,East,90,0.0,0.0,93,0.00,,,-99.99,Meteorologica,2013-05-27 12:17:00,
2013-05-27 07:22:00,62.2,60.2,29.85,ENE,74,1.2,4.7,93,0.00,,,-99.99,Meteorologica,2013-05-27 12:22:00,
2013-05-27 07:27:00,61.9,59.8,29.85,East,101,4.3,8.3,93,0.00,,,-99.99,Meteorologica,2013-05-27 12:27:00,
2013-05-27 07:32:00,62.0,59.9,29.86,NE,39,1.0,5.6,93,0.00,,,-99.99,Meteorologica,2013-05-27 12:32:00,
2013-05-27 07:37:00,62.1,60.0,29.87,ESE,117,1.5,3.2,93,0.00,,,-99.99,Meteorologica,2013-05-27 12:37:00,
2013-05-27 07:42:00,62.2,60.1,29.88,East,98,0.0,0.0,93,0.00,,,-99.99,Meteorologica,2013-05-27 12:42:00,
2013-05-27 07:47:00,62.1,60.0,29.88,ENE,62,0.0,0.0,92,0.00,,,-99.99,Meteorologica,2013-05-27 12:47:00,
2013-05-27 07:52:00,62.0,59.9,29.88,ESE,109,3.3,7.4,93,0.00,,,-99.99,Meteorologica,2013-05-27 12:52:00,
2013-05-27 07:57:00,62.2,60.1,29.88,East,87,0.0,0.0,93,0.00,,,-99.99,Meteorologica,2013-05-27 12:57:00,
2013-05-27 08:03:00,62.4,60.3,29.88,South,180,1.8,4.2,92,0.00,,,-99.99,Meteorologica,2013-05-27 13:03:00,
2013-05-27 08:08:00,62.3,60.2,29.89,ESE,115,2.7,5.5,93,0.00,,,-99.99,Meteorologica,2013-05-27 13:08:00,
2013-05-27 08:13:00,62.4,60.3,29.90,ESE,114,0.0,0.0,93,0.00,,,-99.99,Meteorologica,2013-05-27 13:13:00,
2013-05-27 08:18:00,62.4,60.3,29.89,East,84,2.6,7.9,93,0.00,,,-99.99,Meteorologica,2013-05-27 13:18:00,
2013-05-27 08:23:00,62.5,60.4,29.89,East,85,4.5,8.5,93,0.00,,,-99.99,Meteorologica,2013-05-27 13:23:00,
2013-05-27 08:28:00,62.6,60.5,29.89,NNE,31,4.4,10.4,93,0.00,,,-99.99,Meteorologica,2013-05-27 13:28:00,
2013-05-27 08:33:00,62.6,60.5,29.90,ESE,105,4.7,11.2,93,0.00,,,-99.99,Meteorologica,2013-05-27 13:33:00,
2013-05-27 08:38:00,62.7,60.6,29.89,SSE,160,0.0,0.0,93,0.00,,,-99.99,Meteorologica,2013-05-27 13:38:00,
2013-05-27 08:43:00,62.7,60.6,29.89,SE,125,0.0,6.3,92,0.00,,,-99.99,Meteorologica,2013-05-27 13:43:00,
2013-05-27 08:48:00,62.8,60.7,29.89,SSE,148,0.0,8.4,92,0.00,,,-99.99,Meteorologica,2013-05-27 13:48:00,
2013-05-27 08:53:00,62.7,60.5,29.89,SSW,210,5.6,10.7,92,0.00,,,-99.99,Meteorologica,2013-05-27 13:53:00,
2013-05-27 08:58:00,63.1,60.8,29.90,SSW,201,1.5,5.6,92,0.00,,,-99.99,Meteorologica,2013-05-27 13:58:00,
2013-05-27 09:03:00,63.3,61.0,29.91,NNE,12,1.6,6.9,92,0.00,,,-99.99,Meteorologica,2013-05-27 14:03:00,
2013-05-27 09:08:00,63.3,61.0,29.90,WNW,287,0.2,3.0,92,0.00,,,-99.99,Meteorologica,2013-05-27 14:08:00,
2013-05-27 09:13:00,63.5,61.1,29.89,SE,141,1.0,4.8,92,0.00,,,-99.99,Meteorologica,2013-05-27 14:13:00,
2013-05-27 09:18:00,63.5,61.1,29.88,NNE,22,2.0,5.3,92,0.00,,,-99.99,Meteorologica,2013-05-27 14:18:00,
2013-05-27 09:23:00,63.6,61.3,29.88,East,87,1.4,5.2,92,0.00,,,-99.99,Meteorologica,2013-05-27 14:23:00,
2013-05-27 09:28:00,63.7,61.4,29.91,South,175,1.5,7.2,92,0.00,,,-99.99,Meteorologica,2013-05-27 14:28:00,
2013-05-27 09:33:00,63.6,61.4,29.90,ESE,104,1.8,4.3,92,0.00,,,-99.99,Meteorologica,2013-05-27 14:33:00,
2013-05-27 09:38:00,63.5,61.3,29.89,ESE,109,3.9,10.8,92,0.00,,,-99.99,Meteorologica,2013-05-27 14:38:00,
2013-05-27 09:43:00,63.4,61.2,29.87,SSE,153,4.0,8.2,92,0.00,,,-99.99,Meteorologica,2013-05-27 14:43:00,
2013-05-27 09:48:00,63.4,61.2,29.87,SE,133,6.1,9.1,92,0.00,,,-99.99,Meteorologica,2013-05-27 14:48:00,
2013-05-27 09:53:00,63.7,61.5,29.87,East,96,4.8,8.1,92,0.00,,,-99.99,Meteorologica,2013-05-27 14:53:00,
2013-05-27 09:58:00,64.0,61.7,29.85,SE,124,4.9,9.2,92,0.00,,,-99.99,Meteorologica,2013-05-27 14:58:00,
2013-05-27 10:03:00,64.2,61.9,29.84,East,93,5.3,14.2,92,0.00,,,-99.99,Meteorologica,2013-05-27 15:03:00,
2013-05-27 10:08:00,64.5,62.1,29.84,SE,143,6.5,8.8,91,0.00,,,-99.99,Meteorologica,2013-05-27 15:08:00,
2013-05-27 10:13:00,64.9,62.4,29.83,SE,135,5.2,7.5,91,0.00,,,-99.99,Meteorologica,2013-05-27 15:13:00,
2013-05-27 10:18:00,65.1,62.3,29.82,SSE,148,5.6,11.4,90,0.00,,,-99.99,Meteorologica,2013-05-27 15:18:00,
2013-05-27 10:23:00,65.7,62.9,29.82,East,88,6.7,10.8,90,0.00,,,-99.99,Meteorologica,2013-05-27 15:23:00,
2013-05-27 10:28:00,66.0,63.0,29.82,South,172,7.3,16.3,90,0.00,,,-99.99,Meteorologica,2013-05-27 15:28:00,
2013-05-27 10:33:00,66.6,63.4,29.82,SSE,163,5.3,9.8,89,0.00,,,-99.99,Meteorologica,2013-05-27 15:33:00,
2013-05-27 10:38:00,67.1,63.5,29.82,ESE,122,5.3,9.1,88,0.00,,,-99.99,Meteorologica,2013-05-27 15:38:00,
2013-05-27 10:43:00,67.5,64.0,29.82,East,88,5.8,9.1,86,0.00,,,-99.99,Meteorologica,2013-05-27 15:43:00,
2013-05-27 10:48:00,67.8,63.1,29.81,South,177,7.3,12.0,85,0.00,,,-99.99,Meteorologica,2013-05-27 15:48:00,
2013-05-27 10:53:00,68.0,63.3,29.80,ESE,106,5.8,12.8,85,0.00,,,-99.99,Meteorologica,2013-05-27 15:53:00,
2013-05-27 10:58:00,68.4,63.4,29.80,SSE,148,6.5,9.4,83,0.00,,,-99.99,Meteorologica,2013-05-27 15:58:00,
2013-05-27 11:03:00,68.7,63.4,29.79,ESE,110,5.5,10.8,83,0.00,,,-99.99,Meteorologica,2013-05-27 16:03:00,
2013-05-27 11:08:00,69.2,63.2,29.79,ESE,119,7.4,12.5,81,0.00,,,-99.99,Meteorologica,2013-05-27 16:08:00,
2013-05-27 11:13:00,69.5,63.9,29.79,East,87,5.9,11.9,82,0.00,,,-99.99,Meteorologica,2013-05-27 16:13:00,
2013-05-27 11:18:00,69.9,64.0,29.80,ESE,103,4.1,10.2,81,0.00,,,-99.99,Meteorologica,2013-05-27 16:18:00,
2013-05-27 11:23:00,70.4,63.7,29.80,SE,135,8.1,16.5,79,0.00,,,-99.99,Meteorologica,2013-05-27 16:23:00,
2013-05-27 11:28:00,71.0,64.4,29.80,East,100,4.4,6.6,79,0.00,,,-99.99,Meteorologica,2013-05-27 16:28:00,
2013-05-27 11:33:00,71.4,63.9,29.80,NNE,27,6.0,12.0,77,0.00,,,-99.99,Meteorologica,2013-05-27 16:33:00,
2013-05-27 11:38:00,71.5,64.1,29.80,SE,144,7.8,16.1,77,0.00,,,-99.99,Meteorologica,2013-05-27 16:38:00,
2013-05-27 11:43:00,71.5,64.1,29.80,ESE,115,7.9,16.4,77,0.00,,,-99.99,Meteorologica,2013-05-27 16:43:00,
2013-05-27 11:48:00,71.5,64.1,29.79,ESE,115,5.8,14.9,77,0.00,,,-99.99,Meteorologica,2013-05-27 16:48:00,
2013-05-27 11:53:00,71.6,64.4,29.79,South,190,5.5,12.0,77,0.00,,,-99.99,Meteorologica,2013-05-27 16:53:00,
2013-05-27 11:58:00,71.9,64.7,29.79,East,89,4.1,8.7,77,0.00,,,-99.99,Meteorologica,2013-05-27 16:58:00,
2013-05-27 12:03:00,72.5,64.4,29.78,East,99,2.4,9.1,75,0.00,,,-99.99,Meteorologica,2013-05-27 17:03:00,
2013-05-27 12:08:00,73.1,64.7,29.78,ESE,114,3.7,19.0,74,0.00,,,-99.99,Meteorologica,2013-05-27 17:08:00,
2013-05-27 12:13:00,72.9,64.4,29.78,ESE,116,6.4,15.1,74,0.00,,,-99.99,Meteorologica,2013-05-27 17:13:00,
2013-05-27 12:18:00,73.1,65.1,29.78,WSW,240,6.2,9.2,75,0.00,,,-99.99,Meteorologica,2013-05-27 17:18:00,
2013-05-27 12:23:00,73.3,63.8,29.78,SSE,158,6.6,13.8,71,0.00,,,-99.99,Meteorologica,2013-05-27 17:23:00,
2013-05-27 12:28:00,73.5,64.1,29.77,SE,140,6.9,12.9,72,0.00,,,-99.99,Meteorologica,2013-05-27 17:28:00,
2013-05-27 12:33:00,73.7,64.5,29.78,SE,132,5.6,12.7,72,0.00,,,-99.99,Meteorologica,2013-05-27 17:33:00,
2013-05-27 12:38:00,74.2,65.3,29.77,South,183,2.4,12.6,73,0.00,,,-99.99,Meteorologica,2013-05-27 17:38:00,
2013-05-27 12:43:00,74.3,63.7,29.78,NE,38,8.5,16.9,69,0.00,,,-99.99,Meteorologica,2013-05-27 17:43:00,
2013-05-27 12:48:00,74.7,65.1,29.77,ESE,107,5.8,11.5,71,0.00,,,-99.99,Meteorologica,2013-05-27 17:48:00,
2013-05-27 12:53:00,75.1,64.6,29.76,ESE,116,6.0,11.8,69,0.00,,,-99.99,Meteorologica,2013-05-27 17:53:00,
2013-05-27 12:58:00,74.9,64.4,29.76,South,187,7.5,15.6,69,0.00,,,-99.99,Meteorologica,2013-05-27 17:58:00,
2013-05-27 13:03:00,75.0,64.1,29.75,ESE,120,7.0,13.4,68,0.00,,,-99.99,Meteorologica,2013-05-27 18:03:00,
2013-05-27 13:08:00,75.3,64.5,29.75,SSE,157,7.2,12.6,68,0.00,,,-99.99,Meteorologica,2013-05-27 18:08:00,
2013-05-27 13:13:00,75.7,64.7,29.75,South,170,5.3,10.4,68,0.00,,,-99.99,Meteorologica,2013-05-27 18:13:00,
2013-05-27 13:18:00,76.0,65.3,29.75,ESE,103,2.2,8.8,69,0.00,,,-99.99,Meteorologica,2013-05-27 18:18:00,
2013-05-27 13:23:00,76.3,65.5,29.75,SE,141,5.6,10.4,69,0.00,,,-99.99,Meteorologica,2013-05-27 18:23:00,
2013-05-27 13:28:00,76.6,66.2,29.74,South,176,5.2,14.9,69,0.00,,,-99.99,Meteorologica,2013-05-27 18:28:00,
2013-05-27 13:33:00,77.0,65.7,29.74,SE,144,4.8,14.4,67,0.00,,,-99.99,Meteorologica,2013-05-27 18:33:00,
2013-05-27 13:38:00,76.9,66.4,29.74,SE,131,4.6,9.1,69,0.00,,,-99.99,Meteorologica,2013-05-27 18:38:00,
2013-05-27 13:43:00,76.9,65.5,29.74,South,184,8.8,14.2,67,0.00,,,-99.99,Meteorologica,2013-05-27 18:43:00,
2013-05-27 13:48:00,76.8,65.7,29.73,SE,142,9.8,17.0,68,0.00,,,-99.99,Meteorologica,2013-05-27 18:48:00,
2013-05-27 13:53:00,77.5,66.5,29.73,East,97,4.2,7.6,68,0.00,,,-99.99,Meteorologica,2013-05-27 18:53:00,
2013-05-27 13:58:00,78.1,66.7,29.72,ESE,109,8.0,14.4,67,0.00,,,-99.99,Meteorologica,2013-05-27 18:58:00,
2013-05-27 14:03:00,78.2,66.8,29.73,SSW,194,6.2,13.2,67,0.00,,,-99.99,Meteorologica,2013-05-27 19:03:00,
2013-05-27 14:08:00,78.4,67.6,29.73,SSW,194,6.2,13.1,69,0.00,,,-99.99,Meteorologica,2013-05-27 19:08:00,
2013-05-27 14:13:00,78.2,66.7,29.72,SW,223,6.0,14.7,67,0.00,,,-99.99,Meteorologica,2013-05-27 19:13:00,
2013-05-27 14:18:00,78.8,67.2,29.72,SE,126,8.4,14.7,67,0.00,,,-99.99,Meteorologica,2013-05-27 19:18:00,
2013-05-27 14:23:00,78.3,66.4,29.72,SSE,155,9.7,19.4,66,0.00,,,-99.99,Meteorologica,2013-05-27 19:23:00,
2013-05-27 14:28:00,78.9,67.2,29.72,WSW,241,9.5,14.9,66,0.00,,,-99.99,Meteorologica,2013-05-27 19:28:00,
2013-05-27 14:33:00,78.9,67.7,29.72,SW,228,8.5,13.7,68,0.00,,,-99.99,Meteorologica,2013-05-27 19:33:00,
2013-05-27 14:38:00,79.1,67.3,29.72,SSE,158,9.7,20.8,66,0.00,,,-99.99,Meteorologica,2013-05-27 19:38:00,
2013-05-27 14:43:00,79.7,67.9,29.72,ESE,114,4.2,9.7,66,0.00,,,-99.99,Meteorologica,2013-05-27 19:43:00,
2013-05-27 14:48:00,79.9,68.2,29.71,SE,146,5.2,10.4,67,0.00,,,-99.99,Meteorologica,2013-05-27 19:48:00,
2013-05-27 14:53:00,79.9,68.1,29.71,SW,222,3.9,7.9,66,0.00,,,-99.99,Meteorologica,2013-05-27 19:53:00,
2013-05-27 14:58:00,80.0,68.8,29.71,South,175,6.4,11.7,68,0.00,,,-99.99,Meteorologica,2013-05-27 19:58:00,
2013-05-27 15:03:00,79.4,68.0,29.72,SSW,213,11.3,19.9,67,0.00,,,-99.99,Meteorologica,2013-05-27 20:03:00,
2013-05-27 15:08:00,79.7,68.9,29.71,SSE,160,5.9,14.2,69,0.00,,,-99.99,Meteorologica,2013-05-27 20:08:00,
2013-05-27 15:13:00,79.5,69.0,29.71,ESE,118,7.2,10.8,68,0.00,,,-99.99,Meteorologica,2013-05-27 20:13:00,
2013-05-27 15:18:00,79.4,68.9,29.71,ESE,104,9.7,20.1,69,0.00,,,-99.99,Meteorologica,2013-05-27 20:18:00,
2013-05-27 15:23:00,79.4,69.0,29.70,SSW,192,7.4,16.7,70,0.00,,,-99.99,Meteorologica,2013-05-27 20:23:00,
2013-05-27 15:28:00,79.7,69.8,29.70,South,170,7.0,12.1,71,0.00,,,-99.99,Meteorologica,2013-05-27 20:28:00,
2013-05-27 15:33:00,79.8,69.5,29.70,SSE,159,6.2,10.0,70,0.00,,,-99.99,Meteorologica,2013-05-27 20:33:00,
2013-05-27 15:38:00,79.7,69.5,29.70,South,171,6.6,13.0,70,0.00,,,-99.99,Meteorologica,2013-05-27 20:38:00,
2013-05-27 15:43:00,80.2,69.7,29.69,SE,142,6.5,9.6,69,0.00,,,-99.99,Meteorologica,2013-05-27 20:43:00,
2013-05-27 15:48:00,80.4,69.5,29.70,SE,143,5.8,10.6,68,0.00,,,-99.99,Meteorologica,2013-05-27 20:48:00,
2013-05-27 15:53:00,80.4,70.0,29.70,SW,217,6.1,10.3,70,0.00,,,-99.99,Meteorologica,2013-05-27 20:53:00,
2013-05-27 15:58:00,80.3,70.1,29.70,SSE,165,3.6,9.7,70,0.00,,,-99.99,Meteorologica,2013-05-27 20:58:00,
2013-05-27 16:03:00,80.1,69.9,29.70,South,182,6.3,12.3,70,0.00,,,-99.99,Meteorologica,2013-05-27 21:03:00,
2013-05-27 16:08:00,80.1,69.8,29.70,SSE,167,4.8,11.7,70,0.00,,,-99.99,Meteorologica,2013-05-27 21:08:00,
2013-05-27 16:13:00,80.1,69.4,29.70,South,171,5.8,13.4,69,0.00,,,-99.99,Meteorologica,2013-05-27 21:13:00,
2013-05-27 16:18:00,79.8,69.3,29.70,SSW,201,7.0,18.0,69,0.00,,,-99.99,Meteorologica,2013-05-27 21:18:00,
2013-05-27 16:23:00,79.5,69.6,29.69,SSW,204,4.5,9.9,71,0.00,,,-99.99,Meteorologica,2013-05-27 21:23:00,
2013-05-27 16:28:00,79.8,70.0,29.69,ESE,116,5.5,11.2,71,0.00,,,-99.99,Meteorologica,2013-05-27 21:28:00,
2013-05-27 16:33:00,79.5,70.1,29.69,East,101,5.0,10.0,72,0.00,,,-99.99,Meteorologica,2013-05-27 21:33:00,
2013-05-27 16:38:00,79.5,70.0,29.69,South,169,2.5,9.0,72,0.00,,,-99.99,Meteorologica,2013-05-27 21:38:00,
2013-05-27 16:43:00,79.1,69.9,29.69,SSE,154,6.1,10.4,73,0.00,,,-99.99,Meteorologica,2013-05-27 21:43:00,
2013-05-27 16:48:00,79.0,70.4,29.68,SSE,151,3.9,11.2,74,0.00,,,-99.99,Meteorologica,2013-05-27 21:48:00,
2013-05-27 16:53:00,79.1,69.5,29.68,SE,143,8.3,14.6,72,0.00,,,-99.99,Meteorologica,2013-05-27 21:53:00,
2013-05-27 16:58:00,79.2,69.9,29.67,ENE,73,4.8,10.8,72,0.00,,,-99.99,Meteorologica,2013-05-27 21:58:00,
2013-05-27 17:03:00,79.2,70.3,29.67,SSE,162,4.1,7.0,73,0.00,,,-99.99,Meteorologica,2013-05-27 22:03:00,
2013-05-27 17:08:00,79.3,70.2,29.67,SE,143,4.6,8.6,73,0.00,,,-99.99,Meteorologica,2013-05-27 22:08:00,
2013-05-27 17:13:00,79.2,70.2,29.66,East,86,3.7,6.6,73,0.00,,,-99.99,Meteorologica,2013-05-27 22:13:00,
2013-05-27 17:18:00,79.4,70.8,29.66,ESE,112,3.3,6.1,74,0.00,,,-99.99,Meteorologica,2013-05-27 22:18:00,
2013-05-27 17:23:00,79.8,70.5,29.66,ESE,110,2.6,8.2,72,0.00,,,-99.99,Meteorologica,2013-05-27 22:23:00,
2013-05-27 17:28:00,79.9,71.3,29.66,North,359,3.0,7.0,74,0.00,,,-99.99,Meteorologica,2013-05-27 22:28:00,
2013-05-27 17:33:00,80.0,70.8,29.66,NE,50,4.9,10.0,73,0.00,,,-99.99,Meteorologica,2013-05-27 22:33:00,
2013-05-27 17:38:00,80.1,71.0,29.66,SSW,200,1.4,9.8,73,0.00,,,-99.99,Meteorologica,2013-05-27 22:38:00,
2013-05-27 17:43:00,79.8,70.8,29.65,SSE,154,6.2,12.8,73,0.00,,,-99.99,Meteorologica,2013-05-27 22:43:00,
2013-05-27 17:48:00,79.9,70.9,29.65,South,177,4.1,6.6,73,0.00,,,-99.99,Meteorologica,2013-05-27 22:48:00,
2013-05-27 17:53:00,80.0,71.0,29.65,SE,145,1.5,5.6,73,0.00,,,-99.99,Meteorologica,2013-05-27 22:53:00,
2013-05-27 17:58:00,79.7,71.4,29.64,SSE,152,3.4,6.6,75,0.00,,,-99.99,Meteorologica,2013-05-27 22:58:00,
2013-05-27 18:03:00,79.5,71.2,29.63,SSE,155,2.4,9.5,75,0.00,,,-99.99,Meteorologica,2013-05-27 23:03:00,
2013-05-27 18:08:00,80.0,71.5,29.64,ESE,104,1.2,5.4,75,0.00,,,-99.99,Meteorologica,2013-05-27 23:08:00,
2013-05-27 18:13:00,80.1,71.4,29.63,ESE,119,5.2,10.8,74,0.00,,,-99.99,Meteorologica,2013-05-27 23:13:00,
2013-05-27 18:18:00,80.2,71.5,29.65,East,81,4.8,10.7,74,0.00,,,-99.99,Meteorologica,2013-05-27 23:18:00,
2013-05-27 18:23:00,80.1,71.7,29.64,SE,132,2.1,6.3,75,0.00,,,-99.99,Meteorologica,2013-05-27 23:23:00,
2013-05-27 18:28:00,80.0,71.5,29.65,SW,224,1.9,7.6,74,0.00,,,-99.99,Meteorologica,2013-05-27 23:28:00,
2013-05-27 18:33:00,79.8,71.6,29.65,East,97,0.2,1.5,76,0.00,,,-99.99,Meteorologica,2013-05-27 23:33:00,
2013-05-27 18:38:00,79.5,71.4,29.64,East,97,0.0,0.0,76,0.00,,,-99.99,Meteorologica,2013-05-27 23:38:00,
2013-05-27 18:43:00,79.2,71.3,29.64,ESE,103,1.6,6.1,76,0.00,,,-99.99,Meteorologica,2013-05-27 23:43:00,
2013-05-27 18:48:00,78.9,71.1,29.64,East,100,4.6,12.1,76,0.00,,,-99.99,Meteorologica,2013-05-27 23:48:00,
2013-05-27 18:53:00,78.5,71.0,29.63,SE,136,1.6,5.8,77,0.00,,,-99.99,Meteorologica,2013-05-27 23:53:00,
2013-05-27 18:58:00,78.4,71.0,29.63,SE,125,4.5,7.0,77,0.00,,,-99.99,Meteorologica,2013-05-27 23:58:00,
2013-05-27 19:03:00,78.3,71.2,29.62,SE,134,4.7,7.5,78,0.00,,,-99.99,Meteorologica,2013-05-28 00:03:00,
2013-05-27 19:08:00,78.0,70.9,29.62,ENE,73,0.0,3.3,78,0.00,,,-99.99,Meteorologica,2013-05-28 00:08:00,
2013-05-27 19:13:00,78.0,71.1,29.62,SSE,163,1.6,3.4,79,0.00,,,-99.99,Meteorologica,2013-05-28 00:13:00,
2013-05-27 19:18:00,77.5,70.7,29.61,SSE,160,2.5,8.1,79,0.00,,,-99.99,Meteorologica,2013-05-28 00:18:00,
2013-05-27 19:23:00,77.5,70.8,29.61,ESE,118,4.1,7.1,79,0.00,,,-99.99,Meteorologica,2013-05-28 00:23:00,
2013-05-27 19:28:00,77.1,70.9,29.59,ENE,67,2.1,6.4,80,0.00,,,-99.99,Meteorologica,2013-05-28 00:28:00,
2013-05-27 19:33:00,77.0,70.5,29.60,SE,146,1.1,9.7,80,0.00,,,-99.99,Meteorologica,2013-05-28 00:33:00,
2013-05-27 19:38:00,76.9,70.6,29.61,SE,131,1.8,5.7,80,0.00,,,-99.99,Meteorologica,2013-05-28 00:38:00,
2013-05-27 19:43:00,76.8,70.7,29.63,SSE,162,4.0,6.4,81,0.00,,,-99.99,Meteorologica,2013-05-28 00:43:00,
2013-05-27 19:48:00,76.6,70.6,29.62,SE,124,4.8,8.7,81,0.00,,,-99.99,Meteorologica,2013-05-28 00:48:00,
2013-05-27 19:53:00,76.3,70.5,29.61,ENE,63,2.4,7.3,82,0.00,,,-99.99,Meteorologica,2013-05-28 00:53:00,
2013-05-27 19:58:00,76.2,70.6,29.61,ENE,73,2.2,6.6,82,0.00,,,-99.99,Meteorologica,2013-05-28 00:58:00,
2013-05-27 20:03:00,75.9,70.3,29.60,East,97,3.0,7.6,82,0.00,,,-99.99,Meteorologica,2013-05-28 01:03:00,
2013-05-27 20:08:00,75.7,70.3,29.60,ESE,114,4.1,6.6,83,0.00,,,-99.99,Meteorologica,2013-05-28 01:08:00,
2013-05-27 20:13:00,75.6,70.2,29.59,ESE,117,1.1,5.3,83,0.00,,,-99.99,Meteorologica,2013-05-28 01:13:00,
2013-05-27 20:18:00,75.1,69.9,29.60,SSE,159,5.0,9.1,83,0.00,,,-99.99,Meteorologica,2013-05-28 01:18:00,
2013-05-27 20:23:00,75.0,69.8,29.60,ENE,64,5.2,8.5,83,0.00,,,-99.99,Meteorologica,2013-05-28 01:23:00,
2013-05-27 20:28:00,75.0,69.8,29.59,ESE,112,5.4,8.4,83,0.00,,,-99.99,Meteorologica,2013-05-28 01:28:00,
2013-05-27 20:33:00,75.3,70.0,29.60,ESE,103,3.1,5.6,83,0.00,,,-99.99,Meteorologica,2013-05-28 01:33:00,
2013-05-27 20:38:00,75.1,69.6,29.60,East,84,4.1,5.7,82,0.00,,,-99.99,Meteorologica,2013-05-28 01:38:00,
2013-05-27 20:43:00,75.3,69.7,29.62,SE,135,3.5,7.3,82,0.00,,,-99.99,Meteorologica,2013-05-28 01:43:00,
2013-05-27 20:48:00,75.6,70.0,29.64,SE,140,4.7,6.3,82,0.00,,,-99.99,Meteorologica,2013-05-28 01:48:00,
2013-05-27 20:53:00,75.7,70.0,29.62,SE,132,3.8,5.1,82,0.00,,,-99.99,Meteorologica,2013-05-28 01:53:00,
2013-05-27 20:58:00,75.6,70.1,29.62,East,81,3.2,5.8,82,0.00,,,-99.99,Meteorologica,2013-05-28 01:58:00,
2013-05-27 21:03:00,75.6,70.3,29.62,ENE,62,0.4,3.1,83,0.00,,,-99.99,Meteorologica,2013-05-28 02:03:00,
2013-05-27 21:08:00,75.2,69.8,29.61,SE,124,4.8,6.7,83,0.00,,,-99.99,Meteorologica,2013-05-28 02:08:00,
2013-05-27 21:13:00,75.4,69.7,29.60,East,79,0.0,7.3,82,0.00,,,-99.99,Meteorologica,2013-05-28 02:13:00,
2013-05-27 21:18:00,75.7,69.9,29.60,SSE,164,2.9,4.5,82,0.00,,,-99.99,Meteorologica,2013-05-28 02:18:00,
2013-05-27 21:23:00,75.7,70.2,29.59,East,101,4.8,6.4,82,0.00,,,-99.99,Meteorologica,2013-05-28 02:23:00,
2013-05-27 21:28:00,75.5,70.1,29.60,ESE,112,1.4,5.2,83,0.00,,,-99.99,Meteorologica,2013-05-28 02:28:00,
2013-05-27 21:33:00,75.4,69.3,29.58,ESE,107,3.5,7.4,81,0.00,,,-99.99,Meteorologica,2013-05-28 02:33:00,
2013-05-27 21:38:00,75.8,69.7,29.58,ESE,118,3.4,5.3,81,0.00,,,-99.99,Meteorologica,2013-05-28 02:38:00,
2013-05-27 21:43:00,73.7,67.4,29.70,WNW,283,11.3,19.3,80,0.00,,,-99.99,Meteorologica,2013-05-28 02:43:00,
2013-05-27 21:48:00,69.6,66.7,29.68,WNW,289,14.2,29.4,90,0.00,,,-99.99,Meteorologica,2013-05-28 02:48:00,
2013-05-27 21:53:00,68.5,66.2,29.67,WNW,295,7.2,14.9,92,0.00,,,-99.99,Meteorologica,2013-05-28 02:53:00,
2013-05-27 21:58:00,67.5,65.1,29.53,West,266,10.4,16.1,92,0.00,,,-99.99,Meteorologica,2013-05-28 02:58:00,
2013-05-27 22:03:00,0.0,0.0,26.62,North,355,3.7,8.7,92,0.00,,,-99.99,Meteorologica,2013-05-28 03:03:00,